MUHG

Details ICAO MUHG (HOG)
Name FRANK PAIS INTL
Region Cuba
Timezone America/Havana (UTC-5.0)
Plans Departing 34
Arriving 64
Stats Elevation 361 ft / 110 m (AMSL)
Location 20.785554° -76.315108°
Runways 1
Magnetic Variation 8.245° W
Sunrise 2017-12-16 11:36:08 UTC / 2017-12-16 06:36:08 Local
Sunset 2017-12-16 22:28:37 UTC / 2017-12-16 17:28:37 Local
Advertisement - Login to hide

Runways

ID Width Length Bearing (true) Bearing (mag) Surface Threshold Offset Overrun Length
05 148 ft / 45 m 10,642 ft / 3,244 m 46.12° 54.37° Asphalt 328 ft / 100 m 290 ft / 88 m
23 148 ft / 45 m 10,642 ft / 3,244 m 226.12° 234.37° Asphalt 0 ft / 0 m 0 ft / 0 m

Approach Navaids

Runway Type Ident Frequency Range Bearing (true) Bearing (mag) Slope Elevation
05 Localiser IHG 111.30 MHz 18 nm / 33 km 46.13° 54.38° - 361 ft / 110 m (AMSL)
05 Glidescope IHG 111.30 MHz 10 nm / 19 km 46.12° 54.36° 3.00° 361 ft / 110 m (AMSL)

Map

Weather


0- 5 10 15 20 25 30 35+ Temperature / ° C

Clouds and Precipitation
Forecast for 2017-12-16 06:00 UTC. Updated 32 minutes ago

Ground ~20,000 ft ~40,000 ft Winds

METAR

MUHG 160450Z 01003KT 9000 SKC 23/23 Q1018

TAF

Not found

Frequencies

Tower 126.90 MHz HOLGUIN RDO
Approach 119.10 MHz HOLGUIN APP
Tower 118.00 MHz HOLGUIN TWR
Warning: Do not use this data for real-world aviation or navigation. No guarantee of current accuracy is given.